Time;durP1;ratioP1;P1;durP2;ratioP2;P2;SDS_P1;SDS_P2;PMS_P1;PMS_P2;Temp;Humidity;BMP_temperature;BMP_pressure;BME280_temperature;BME280_humidity;BME280_pressure;Samples;Min_cycle;Max_cycle;Signal;HPM_P1;HPM_P2
2021/07/19 00:02:14;;;;;;;2.72;2.22;;;21.20;92.20;;;;;;5130533;27;20055;-89
2021/07/19 00:04:43;;;;;;;4.88;2.35;;;21.10;92.40;;;;;;5138420;27;20064;-88
2021/07/19 00:07:09;;;;;;;3.40;2.30;;;21.10;92.60;;;;;;5146340;27;20039;-87
2021/07/19 00:09:34;;;;;;;6.63;2.10;;;21.00;92.70;;;;;;5122470;27;20500;-87
2021/07/19 00:12:00;;;;;;;2.53;1.75;;;21.00;92.80;;;;;;5140466;27;20066;-88
2021/07/19 00:14:27;;;;;;;5.05;2.38;;;20.90;93.00;;;;;;5120583;27;20067;-88
2021/07/19 00:16:53;;;;;;;8.82;1.85;;;20.90;93.10;;;;;;5140066;27;20031;-88
2021/07/19 00:19:19;;;;;;;2.22;1.50;;;20.90;93.30;;;;;;5134536;27;20050;-88
2021/07/19 00:21:45;;;;;;;4.25;1.98;;;20.80;93.40;;;;;;5129625;27;20031;-88
2021/07/19 00:24:10;;;;;;;3.38;2.20;;;20.80;93.40;;;;;;5139085;27;20118;-87
2021/07/19 00:26:36;;;;;;;4.28;2.05;;;20.70;93.60;;;;;;5138380;27;20027;-88
2021/07/19 00:29:01;;;;;;;4.80;1.80;;;20.70;93.40;;;;;;5120007;27;20035;-88
2021/07/19 00:31:31;;;;;;;6.32;1.95;;;20.60;93.50;;;;;;5139069;27;20039;-87
2021/07/19 00:33:57;;;;;;;4.00;2.08;;;20.50;93.60;;;;;;5119779;27;20031;-87
2021/07/19 00:36:23;;;;;;;8.85;3.10;;;20.50;93.60;;;;;;5139092;27;20436;-88
2021/07/19 00:38:51;;;;;;;3.75;1.50;;;20.40;93.70;;;;;;5120282;27;20035;-89
2021/07/19 00:41:16;;;;;;;3.22;1.98;;;20.40;93.80;;;;;;5138526;27;20417;-87
2021/07/19 00:43:42;;;;;;;2.55;1.77;;;20.40;93.80;;;;;;5117752;27;20046;-86
2021/07/19 00:46:07;;;;;;;4.57;1.88;;;20.30;93.90;;;;;;5119151;27;20038;-87
2021/07/19 00:48:33;;;;;;;4.78;1.90;;;20.30;93.90;;;;;;5138714;27;20034;-87
2021/07/19 00:50:58;;;;;;;6.53;1.70;;;20.20;93.80;;;;;;5120440;27;20035;-86
2021/07/19 00:53:24;;;;;;;2.88;1.73;;;20.20;93.70;;;;;;5120716;27;20047;-86
2021/07/19 00:55:51;;;;;;;5.35;1.88;;;20.10;93.60;;;;;;5120517;27;20039;-87
2021/07/19 00:58:19;;;;;;;4.47;1.58;;;20.10;93.70;;;;;;5138018;27;20589;-86
2021/07/19 01:00:50;;;;;;;3.17;1.48;;;20.00;93.40;;;;;;5137764;27;20026;-87
2021/07/19 01:03:17;;;;;;;3.42;2.00;;;20.00;93.50;;;;;;5137386;27;20039;-86
2021/07/19 01:05:44;;;;;;;3.63;2.15;;;20.00;93.50;;;;;;5137838;27;20336;-87
2021/07/19 01:08:09;;;;;;;6.85;1.60;;;20.00;93.40;;;;;;5138583;27;20043;-87
2021/07/19 01:10:37;;;;;;;3.97;1.88;;;20.00;93.60;;;;;;5121043;28;20156;-87
2021/07/19 01:13:04;;;;;;;4.80;2.13;;;19.90;93.60;;;;;;5120894;28;20031;-87
2021/07/19 01:15:32;;;;;;;4.30;2.13;;;19.90;93.70;;;;;;5141893;28;20394;-87
2021/07/19 01:17:58;;;;;;;2.05;1.33;;;19.80;93.80;;;;;;5134026;28;20039;-88
2021/07/19 01:20:38;;;;;;;3.47;1.98;;;19.80;93.90;;;;;;5141615;27;20087;-87
2021/07/19 01:23:32;;;;;;;3.90;1.77;;;19.80;94.10;;;;;;5128274;27;20035;-87
2021/07/19 01:26:30;;;;;;;4.88;2.03;;;19.70;94.10;;;;;;5123622;27;20042;-87
2021/07/19 01:28:58;;;;;;;3.58;1.67;;;19.70;94.10;;;;;;5129243;27;20417;-88
2021/07/19 01:31:26;;;;;;;4.03;1.85;;;19.70;94.10;;;;;;5121271;27;20042;-88
2021/07/19 01:33:59;;;;;;;4.60;1.80;;;19.60;94.20;;;;;;5125284;27;20035;-87
2021/07/19 01:36:29;;;;;;;6.95;2.33;;;19.60;94.10;;;;;;5126465;27;20038;-89
2021/07/19 01:38:55;;;;;;;3.83;1.48;;;19.60;94.20;;;;;;5138280;27;20031;-87
2021/07/19 01:41:22;;;;;;;5.40;1.80;;;19.70;94.20;;;;;;5136905;27;20134;-87
2021/07/19 01:43:48;;;;;;;4.95;2.40;;;19.60;94.10;;;;;;5133244;27;20070;-89
2021/07/19 01:46:15;;;;;;;3.70;2.05;;;19.60;94.20;;;;;;5129896;27;20043;-89
2021/07/19 01:48:41;;;;;;;4.10;2.10;;;19.60;94.40;;;;;;5131626;27;20039;-88
2021/07/19 01:51:08;;;;;;;3.25;1.92;;;19.50;94.10;;;;;;5142538;27;20126;-88
2021/07/19 01:53:34;;;;;;;3.47;2.30;;;19.40;94.00;;;;;;5123409;27;20034;-88
2021/07/19 01:56:00;;;;;;;2.72;2.10;;;19.30;94.00;;;;;;5120843;27;20284;-89
2021/07/19 01:58:27;;;;;;;3.55;2.38;;;19.30;93.80;;;;;;5125550;27;20039;-87
2021/07/19 02:00:53;;;;;;;4.68;2.20;;;19.20;94.10;;;;;;5123518;27;20416;-88
2021/07/19 02:03:18;;;;;;;4.40;2.22;;;19.10;94.00;;;;;;5124266;27;20122;-88
2021/07/19 02:05:45;;;;;;;4.90;3.55;;;19.10;94.10;;;;;;5140576;27;20111;-88
2021/07/19 02:08:15;;;;;;;6.28;2.90;;;19.00;94.40;;;;;;5130199;27;20125;-89
2021/07/19 02:10:41;;;;;;;3.22;2.60;;;19.00;94.30;;;;;;5128201;27;20039;-86
2021/07/19 02:13:10;;;;;;;8.10;3.15;;;18.90;94.40;;;;;;5141199;27;20309;-89
2021/07/19 02:15:38;;;;;;;7.70;3.30;;;18.90;94.50;;;;;;5152137;27;20045;-88
2021/07/19 02:18:06;;;;;;;6.22;2.83;;;18.80;94.40;;;;;;5126294;27;20081;-90
2021/07/19 02:20:32;;;;;;;3.72;2.72;;;18.80;94.60;;;;;;5123996;27;20027;-89
2021/07/19 02:23:00;;;;;;;4.13;2.58;;;18.80;94.60;;;;;;5123647;27;20070;-89
2021/07/19 02:25:26;;;;;;;6.05;3.05;;;18.80;94.70;;;;;;5124442;27;20284;-89
2021/07/19 02:27:53;;;;;;;6.13;3.55;;;18.80;94.80;;;;;;5108498;28;20043;-88
2021/07/19 02:30:20;;;;;;;6.28;3.33;;;18.80;94.50;;;;;;5109452;28;20054;-90
2021/07/19 02:32:50;;;;;;;5.13;3.28;;;18.80;94.50;;;;;;5114027;27;20391;-88
2021/07/19 02:35:17;;;;;;;4.95;3.03;;;18.60;94.70;;;;;;5140385;27;20142;-87
2021/07/19 02:37:45;;;;;;;6.50;3.35;;;18.70;94.60;;;;;;5141927;27;20039;-87
2021/07/19 02:40:13;;;;;;;5.57;3.05;;;18.60;94.60;;;;;;5129388;27;20573;-88
2021/07/19 02:42:45;;;;;;;7.45;3.28;;;18.60;94.70;;;;;;5141892;27;20104;-89
2021/07/19 02:45:14;;;;;;;8.43;3.60;;;18.60;94.70;;;;;;5124023;27;20035;-89
2021/07/19 02:47:43;;;;;;;4.80;3.20;;;18.60;94.70;;;;;;5122447;27;20052;-88
2021/07/19 02:50:09;;;;;;;6.60;3.58;;;18.60;94.80;;;;;;5140746;27;20035;-88
2021/07/19 02:52:37;;;;;;;4.05;3.33;;;18.60;94.90;;;;;;5127778;27;20402;-87
2021/07/19 02:55:04;;;;;;;5.65;3.33;;;18.70;94.80;;;;;;5140543;27;20043;-90
2021/07/19 02:57:30;;;;;;;6.57;4.22;;;18.70;94.80;;;;;;5141344;27;20031;-88
2021/07/19 02:59:57;;;;;;;6.05;3.55;;;18.70;94.80;;;;;;5123102;27;20122;-89
2021/07/19 03:02:25;;;;;;;6.90;3.60;;;18.70;94.60;;;;;;5122839;27;20092;-88
2021/07/19 03:04:56;;;;;;;5.57;3.75;;;18.70;94.80;;;;;;5123354;27;20468;-88
2021/07/19 03:07:22;;;;;;;5.85;3.30;;;18.80;94.50;;;;;;5131386;27;20167;-88
2021/07/19 03:09:55;;;;;;;7.93;3.70;;;18.80;94.30;;;;;;5136430;27;21780;-88
2021/07/19 03:12:23;;;;;;;5.07;3.35;;;18.80;93.90;;;;;;5113350;27;20095;-89
2021/07/19 03:14:49;;;;;;;5.57;3.38;;;18.80;93.90;;;;;;5130351;27;20121;-89
2021/07/19 03:17:18;;;;;;;5.10;3.35;;;18.70;93.80;;;;;;5139998;27;20031;-86
2021/07/19 03:19:50;;;;;;;6.85;4.45;;;18.70;93.90;;;;;;5140004;27;20039;-88
2021/07/19 03:22:17;;;;;;;6.15;4.22;;;18.70;93.80;;;;;;5122184;27;20563;-89
2021/07/19 03:24:47;;;;;;;8.60;3.90;;;18.70;94.00;;;;;;5129688;27;20027;-90
2021/07/19 03:27:14;;;;;;;6.93;3.78;;;18.70;93.80;;;;;;5141370;27;20042;-88
2021/07/19 03:29:40;;;;;;;4.32;3.58;;;18.70;94.00;;;;;;5138209;28;20036;-88
2021/07/19 03:32:08;;;;;;;9.45;4.40;;;18.60;94.00;;;;;;5125955;27;20043;-89
2021/07/19 03:34:34;;;;;;;8.70;4.10;;;18.60;94.10;;;;;;5143557;27;20562;-89
2021/07/19 03:37:01;;;;;;;9.43;3.95;;;18.50;94.20;;;;;;5135414;27;20051;-88
2021/07/19 03:39:27;;;;;;;6.85;4.20;;;18.50;94.30;;;;;;5140109;27;20050;-89
2021/07/19 03:41:53;;;;;;;8.93;4.75;;;18.50;94.10;;;;;;5136424;27;20084;-88
2021/07/19 03:44:19;;;;;;;7.32;4.68;;;18.50;94.20;;;;;;5121628;27;20366;-88
2021/07/19 03:46:46;;;;;;;7.30;3.97;;;18.40;94.00;;;;;;5125790;27;20119;-88
2021/07/19 03:49:13;;;;;;;11.25;5.28;;;18.30;94.20;;;;;;5139694;27;20035;-88
2021/07/19 03:51:42;;;;;;;8.25;4.35;;;18.30;93.90;;;;;;5122053;27;20043;-88
2021/07/19 03:54:08;;;;;;;8.13;3.90;;;18.30;93.90;;;;;;5121684;27;20056;-89
2021/07/19 03:56:35;;;;;;;8.75;4.03;;;18.30;94.10;;;;;;5121260;27;20126;-87
2021/07/19 03:59:02;;;;;;;7.30;3.95;;;18.30;93.90;;;;;;5138578;27;20035;-88
2021/07/19 04:01:28;;;;;;;10.30;5.38;;;18.20;93.80;;;;;;5106773;28;20122;-88
2021/07/19 04:03:55;;;;;;;5.93;3.78;;;18.20;93.60;;;;;;5115117;27;20055;-87
2021/07/19 04:06:22;;;;;;;5.80;3.60;;;18.20;93.80;;;;;;5151745;27;20098;-88
2021/07/19 04:08:48;;;;;;;9.35;3.08;;;18.10;93.60;;;;;;5127608;27;20034;-87
2021/07/19 04:11:16;;;;;;;7.88;4.10;;;18.10;93.50;;;;;;5150112;27;20066;-88
2021/07/19 04:13:43;;;;;;;7.47;4.13;;;18.10;93.70;;;;;;5124427;27;20346;-89
2021/07/19 04:16:13;;;;;;;10.98;3.83;;;18.10;93.50;;;;;;5122055;27;20034;-88
2021/07/19 04:18:38;;;;;;;9.65;3.65;;;18.10;93.40;;;;;;5142243;27;20039;-86
2021/07/19 04:21:04;;;;;;;7.32;3.47;;;18.10;93.00;;;;;;5133319;27;20035;-86
2021/07/19 04:23:31;;;;;;;7.18;3.25;;;18.10;93.10;;;;;;5122331;27;20031;-87
2021/07/19 04:25:57;;;;;;;10.35;3.92;;;18.10;92.80;;;;;;5138957;27;20034;-88
2021/07/19 04:28:24;;;;;;;8.07;3.60;;;18.10;92.10;;;;;;5121493;27;20317;-87
2021/07/19 04:30:51;;;;;;;8.50;3.30;;;18.00;92.30;;;;;;5124418;27;20145;-86
2021/07/19 04:33:22;;;;;;;9.55;3.15;;;18.00;92.20;;;;;;5121075;27;20134;-87
2021/07/19 04:35:49;;;;;;;8.73;3.08;;;17.90;92.20;;;;;;5137033;27;20043;-88
2021/07/19 04:38:18;;;;;;;9.48;3.50;;;17.80;92.00;;;;;;5128942;27;20406;-87
2021/07/19 04:40:47;;;;;;;9.90;3.10;;;17.80;91.60;;;;;;5132855;27;20074;-87
2021/07/19 04:43:14;;;;;;;7.38;3.15;;;17.70;91.60;;;;;;5119381;27;20058;-87
2021/07/19 04:45:40;;;;;;;10.10;3.70;;;17.60;91.50;;;;;;5110190;27;20031;-87
2021/07/19 04:48:06;;;;;;;8.00;3.45;;;17.60;91.80;;;;;;5137352;27;20038;-89
2021/07/19 04:50:32;;;;;;;10.60;2.85;;;17.50;92.10;;;;;;5119182;27;20062;-88
2021/07/19 04:52:57;;;;;;;5.95;3.42;;;17.40;91.80;;;;;;5123658;27;20027;-88
2021/07/19 04:55:24;;;;;;;11.05;3.47;;;17.40;92.10;;;;;;5128385;27;20066;-88
2021/07/19 04:57:54;;;;;;;7.82;2.80;;;17.30;91.90;;;;;;5121819;27;20114;-87
2021/07/19 05:00:20;;;;;;;8.02;3.03;;;17.30;92.30;;;;;;5137803;27;20078;-88
2021/07/19 05:02:47;;;;;;;11.35;3.35;;;17.30;92.30;;;;;;5120147;28;20078;-87
2021/07/19 05:05:17;;;;;;;9.10;3.13;;;17.30;92.40;;;;;;5137845;27;20043;-88
2021/07/19 05:07:45;;;;;;;6.53;2.90;;;17.30;92.50;;;;;;5136269;27;20055;-88
2021/07/19 05:10:17;;;;;;;7.43;3.28;;;17.30;92.60;;;;;;5123824;28;20305;-88
2021/07/19 05:12:47;;;;;;;9.25;3.58;;;17.40;92.60;;;;;;5120153;27;20052;-86
2021/07/19 05:15:14;;;;;;;7.35;3.25;;;17.40;92.50;;;;;;5126494;27;20034;-89
2021/07/19 05:17:41;;;;;;;8.30;3.20;;;17.50;92.50;;;;;;5123263;28;20501;-87
2021/07/19 05:20:19;;;;;;;9.07;3.58;;;17.50;92.40;;;;;;5119603;28;20049;-88
2021/07/19 05:22:52;;;;;;;9.15;3.72;;;17.50;92.60;;;;;;5106026;28;20134;-87
2021/07/19 05:25:24;;;;;;;9.20;3.75;;;17.60;92.50;;;;;;5133938;28;20481;-87
2021/07/19 05:27:58;;;;;;;6.75;3.17;;;17.70;92.50;;;;;;5135635;28;20412;-86
2021/07/19 05:30:25;;;;;;;7.45;3.53;;;17.70;92.60;;;;;;5119126;28;20031;-89
2021/07/19 05:32:50;;;;;;;9.40;2.92;;;17.70;92.20;;;;;;5138929;28;20395;-87
2021/07/19 05:35:19;;;;;;;8.70;2.95;;;17.70;92.40;;;;;;5128822;28;20031;-88
2021/07/19 05:37:47;;;;;;;17.83;3.38;;;17.80;91.80;;;;;;5123365;28;20031;-87
2021/07/19 05:40:13;;;;;;;8.98;3.08;;;17.80;92.10;;;;;;5139593;28;20039;-87
2021/07/19 05:42:39;;;;;;;6.03;2.25;;;17.90;91.90;;;;;;5121171;28;20074;-89
2021/07/19 05:45:06;;;;;;;8.73;2.95;;;17.90;91.50;;;;;;5138250;28;20064;-89
2021/07/19 05:47:33;;;;;;;7.25;2.90;;;17.90;91.20;;;;;;5117235;28;20306;-87
2021/07/19 05:49:59;;;;;;;10.60;3.58;;;17.90;91.10;;;;;;5117800;28;20104;-89
2021/07/19 05:52:30;;;;;;;9.65;3.03;;;18.00;90.30;;;;;;5141403;28;20055;-87
2021/07/19 05:54:56;;;;;;;11.98;2.92;;;18.00;90.60;;;;;;5119967;28;20070;-88
2021/07/19 05:57:24;;;;;;;8.88;3.17;;;18.00;90.50;;;;;;5120039;28;20075;-89
2021/07/19 05:59:50;;;;;;;11.00;2.60;;;18.10;90.20;;;;;;5121879;28;20314;-89
2021/07/19 06:02:17;;;;;;;8.90;2.75;;;18.10;89.50;;;;;;5120669;28;20072;-88
2021/07/19 06:04:43;;;;;;;10.48;2.70;;;18.20;88.90;;;;;;5118713;27;20038;-88
2021/07/19 06:07:09;;;;;;;6.40;2.20;;;18.20;87.80;;;;;;5121284;27;20041;-89
2021/07/19 06:09:35;;;;;;;10.73;2.35;;;18.20;87.20;;;;;;5142680;27;20035;-87
2021/07/19 06:12:00;;;;;;;10.82;2.63;;;18.20;86.50;;;;;;5138287;27;20035;-88
2021/07/19 06:14:26;;;;;;;7.40;2.33;;;18.20;86.20;;;;;;5122626;27;20043;-88
2021/07/19 06:16:52;;;;;;;8.95;2.30;;;18.30;86.40;;;;;;5119484;27;20051;-87
2021/07/19 06:19:18;;;;;;;5.60;1.85;;;18.30;86.90;;;;;;5120369;27;20036;-86
2021/07/19 06:21:43;;;;;;;8.00;3.15;;;18.30;87.50;;;;;;5133883;27;20039;-88
2021/07/19 06:24:09;;;;;;;9.32;2.45;;;18.40;85.90;;;;;;5135712;27;20463;-88
2021/07/19 06:26:35;;;;;;;8.00;2.58;;;18.50;87.10;;;;;;5137833;27;20328;-87
2021/07/19 06:29:00;;;;;;;9.43;2.70;;;18.40;85.30;;;;;;5116912;27;20097;-89
2021/07/19 06:31:28;;;;;;;9.13;2.80;;;18.50;85.50;;;;;;5138511;27;20039;-87
2021/07/19 06:33:55;;;;;;;7.35;2.22;;;18.50;85.20;;;;;;5122784;27;20039;-88
2021/07/19 06:36:20;;;;;;;13.85;2.85;;;18.50;84.60;;;;;;5122290;27;20047;-89
2021/07/19 06:38:45;;;;;;;9.02;2.38;;;18.50;83.50;;;;;;5114868;28;20272;-87
2021/07/19 06:41:12;;;;;;;5.85;2.67;;;18.50;84.60;;;;;;5116425;27;20070;-87
2021/07/19 06:43:39;;;;;;;8.07;2.35;;;18.50;84.40;;;;;;5132295;27;20031;-88
2021/07/19 06:46:05;;;;;;;9.48;2.83;;;18.50;83.80;;;;;;5144618;27;20050;-87
2021/07/19 06:48:31;;;;;;;8.82;2.88;;;18.50;83.60;;;;;;5128679;27;20031;-88
2021/07/19 06:50:56;;;;;;;8.23;2.35;;;18.50;83.80;;;;;;5120991;27;20043;-89
2021/07/19 06:53:21;;;;;;;7.82;2.63;;;18.60;83.30;;;;;;5122877;27;20043;-89
2021/07/19 06:55:47;;;;;;;10.13;2.47;;;18.60;84.00;;;;;;5122443;27;20122;-89
2021/07/19 06:58:13;;;;;;;8.07;2.38;;;18.60;84.90;;;;;;5118905;27;20539;-90
2021/07/19 07:00:39;;;;;;;7.40;2.30;;;18.70;82.50;;;;;;5143916;27;20042;-87
2021/07/19 07:03:04;;;;;;;10.63;3.13;;;18.80;83.80;;;;;;5133717;27;20043;-88
2021/07/19 07:05:30;;;;;;;8.00;2.35;;;18.80;82.80;;;;;;5140564;27;20022;-88
2021/07/19 07:07:55;;;;;;;6.57;1.95;;;18.90;82.40;;;;;;5137157;27;20047;-88
2021/07/19 07:10:22;;;;;;;6.57;2.05;;;18.90;83.40;;;;;;5149677;27;20039;-90
2021/07/19 07:12:47;;;;;;;6.20;2.88;;;19.00;82.40;;;;;;5119082;28;20066;-88
2021/07/19 07:15:13;;;;;;;10.48;3.22;;;19.00;82.90;;;;;;5140826;27;20445;-86
2021/07/19 07:17:40;;;;;;;4.22;1.85;;;19.10;83.30;;;;;;5150610;27;20046;-89
2021/07/19 07:20:06;;;;;;;6.68;2.30;;;19.20;81.70;;;;;;5132240;27;20087;-88
2021/07/19 07:22:32;;;;;;;7.65;2.67;;;19.20;81.90;;;;;;5126211;27;20289;-91
2021/07/19 07:24:57;;;;;;;5.75;2.42;;;19.20;81.70;;;;;;5124506;27;20041;-88
2021/07/19 07:27:24;;;;;;;5.55;2.10;;;19.20;80.30;;;;;;5125049;27;20042;-87
2021/07/19 07:29:50;;;;;;;8.30;2.47;;;19.20;80.30;;;;;;5122073;27;20039;-90
2021/07/19 07:32:15;;;;;;;6.25;2.03;;;19.20;80.60;;;;;;5122455;27;20117;-86
2021/07/19 07:34:41;;;;;;;6.57;2.33;;;19.20;80.50;;;;;;5110757;27;20081;-88
2021/07/19 07:37:08;;;;;;;8.32;2.47;;;19.20;81.30;;;;;;5129425;27;20043;-89
2021/07/19 07:39:34;;;;;;;7.63;2.47;;;19.30;80.80;;;;;;5129380;27;20042;-88
2021/07/19 07:41:59;;;;;;;9.52;2.10;;;19.30;80.50;;;;;;5136921;27;20340;-89
2021/07/19 07:44:25;;;;;;;8.77;2.25;;;19.40;80.80;;;;;;5121697;27;20039;-88
2021/07/19 07:46:51;;;;;;;5.72;2.47;;;19.40;79.70;;;;;;5103489;28;20042;-89
2021/07/19 07:49:20;;;;;;;7.10;2.20;;;19.50;81.20;;;;;;5113514;27;20121;-89
2021/07/19 07:51:46;;;;;;;5.22;2.22;;;19.60;81.40;;;;;;5125386;27;20422;-88
2021/07/19 07:54:11;;;;;;;8.98;3.03;;;19.70;81.40;;;;;;5121591;27;20124;-88
2021/07/19 07:56:37;;;;;;;8.27;2.38;;;19.80;79.10;;;;;;5119665;28;20036;-89
2021/07/19 07:59:03;;;;;;;7.15;2.25;;;19.90;79.70;;;;;;5121528;27;20050;-89
2021/07/19 08:01:29;;;;;;;9.60;2.33;;;19.90;79.20;;;;;;5139893;27;20387;-89
2021/07/19 08:03:54;;;;;;;7.47;2.30;;;20.00;78.90;;;;;;5121340;27;20036;-88
2021/07/19 08:06:20;;;;;;;8.73;2.10;;;20.10;79.80;;;;;;5118385;27;20039;-88
2021/07/19 08:08:45;;;;;;;6.32;2.42;;;20.20;78.70;;;;;;5116254;27;20039;-88
2021/07/19 08:11:11;;;;;;;4.90;1.92;;;20.30;78.70;;;;;;5122527;27;20039;-89
2021/07/19 08:13:36;;;;;;;8.40;2.35;;;20.40;77.40;;;;;;5120815;27;20035;-87
2021/07/19 08:16:04;;;;;;;9.45;2.92;;;20.50;78.50;;;;;;5111246;27;20096;-89
2021/07/19 08:18:31;;;;;;;10.02;3.55;;;20.50;77.80;;;;;;5119695;27;20051;-89
2021/07/19 08:20:57;;;;;;;9.07;2.92;;;20.60;78.70;;;;;;5121971;27;20035;-91
2021/07/19 08:23:22;;;;;;;7.25;2.40;;;20.60;77.80;;;;;;5121485;27;20110;-89
2021/07/19 08:25:48;;;;;;;17.98;3.05;;;20.70;76.70;;;;;;5136448;27;20043;-88
2021/07/19 08:28:16;;;;;;;7.65;2.50;;;20.80;78.30;;;;;;5138704;27;20032;-88
2021/07/19 08:30:41;;;;;;;8.00;2.60;;;20.70;76.40;;;;;;5139390;27;20115;-90
2021/07/19 08:33:07;;;;;;;14.15;2.75;;;20.70;78.70;;;;;;5122213;27;20366;-91
2021/07/19 08:35:33;;;;;;;8.70;3.20;;;20.70;78.30;;;;;;5122520;27;20091;-90
2021/07/19 08:38:00;;;;;;;7.10;2.83;;;20.80;76.50;;;;;;5123489;27;20038;-88
2021/07/19 08:40:26;;;;;;;6.25;2.50;;;20.70;76.30;;;;;;5139552;27;20043;-90
2021/07/19 08:42:55;;;;;;;11.05;2.67;;;20.70;78.80;;;;;;5125367;27;20046;-89
2021/07/19 08:45:20;;;;;;;11.13;2.97;;;20.80;78.40;;;;;;5129029;27;20031;-89
2021/07/19 08:47:49;;;;;;;4.97;2.17;;;20.90;77.50;;;;;;5122565;27;20408;-90
2021/07/19 08:50:17;;;;;;;8.07;2.92;;;21.10;75.00;;;;;;5123100;27;20126;-89
2021/07/19 08:52:48;;;;;;;6.40;2.55;;;21.10;75.10;;;;;;5122401;27;20038;-88
2021/07/19 08:55:14;;;;;;;8.20;2.78;;;21.10;77.30;;;;;;5121680;27;20126;-89
2021/07/19 08:57:44;;;;;;;7.68;3.15;;;21.20;75.70;;;;;;5121092;27;20044;-89
2021/07/19 09:00:10;;;;;;;6.90;2.90;;;21.10;75.30;;;;;;5120976;27;20091;-88
2021/07/19 09:02:37;;;;;;;10.93;2.95;;;21.10;75.70;;;;;;5121417;27;20462;-86
2021/07/19 09:05:03;;;;;;;9.48;2.90;;;21.00;77.70;;;;;;5121949;28;20035;-89
2021/07/19 09:07:31;;;;;;;9.07;3.17;;;20.90;77.50;;;;;;5123238;28;20167;-88
2021/07/19 09:09:56;;;;;;;12.52;4.00;;;20.90;77.60;;;;;;5144490;27;20043;-87
2021/07/19 09:12:34;;;;;;;6.55;2.78;;;21.00;77.30;;;;;;5120189;28;20050;-86
2021/07/19 09:15:01;;;;;;;5.88;3.03;;;20.90;75.10;;;;;;5120913;27;20046;-88
2021/07/19 09:17:29;;;;;;;13.80;3.47;;;20.90;75.10;;;;;;5137511;27;20650;-87
2021/07/19 09:19:56;;;;;;;6.45;2.92;;;21.00;76.70;;;;;;5120855;28;20039;-89
2021/07/19 09:22:33;;;;;;;6.85;3.50;;;21.10;73.50;;;;;;5121208;28;20463;-89
2021/07/19 09:25:11;;;;;;;5.38;2.90;;;21.20;75.00;;;;;;5120791;28;20070;-88
2021/07/19 09:27:49;;;;;;;6.13;2.80;;;21.30;71.10;;;;;;5136153;28;20028;-88
2021/07/19 09:30:16;;;;;;;5.38;2.60;;;21.30;70.70;;;;;;5129559;28;20043;-88
2021/07/19 09:32:59;;;;;;;5.53;2.47;;;21.40;71.10;;;;;;5119928;28;20062;-90
2021/07/19 09:35:25;;;;;;;;;;;21.50;69.60;;;;;;5121931;28;20046;-88
2021/07/19 09:37:52;;;;;;;8.77;2.33;;;21.40;71.10;;;;;;5121092;28;19998;-89
2021/07/19 09:40:27;;;;;;;3.13;2.08;;;21.50;70.10;;;;;;5122093;27;20035;-88
2021/07/19 09:42:54;;;;;;;9.13;2.28;;;21.60;69.00;;;;;;5141526;27;20648;-88
2021/07/19 09:45:31;;;;;;;5.55;2.20;;;21.60;69.50;;;;;;5124641;27;20035;-88
2021/07/19 09:48:05;;;;;;;4.60;2.10;;;21.70;71.40;;;;;;5124858;27;20035;-87
2021/07/19 09:50:52;;;;;;;4.82;2.03;;;21.80;68.00;;;;;;5126260;27;20050;-90
2021/07/19 09:53:32;;;;;;;3.28;1.85;;;21.90;69.60;;;;;;5128096;27;20039;-91
2021/07/19 09:56:19;;;;;;;5.50;2.25;;;21.90;69.60;;;;;;5124728;27;20027;-90
2021/07/19 09:58:48;;;;;;;4.65;2.00;;;21.90;70.70;;;;;;5120754;28;20088;-86
2021/07/19 10:01:38;;;;;;;6.82;2.72;;;21.90;69.40;;;;;;5108569;28;20328;-87
2021/07/19 10:04:18;;;;;;;3.80;2.10;;;21.80;70.80;;;;;;5109024;28;20032;-85
2021/07/19 10:06:52;;;;;;;5.93;2.30;;;21.70;69.40;;;;;;5118936;28;20083;-88
2021/07/19 10:09:20;;;;;;;3.65;1.88;;;21.60;69.60;;;;;;5129142;27;20031;-88
2021/07/19 10:11:56;;;;;;;3.50;1.75;;;21.70;71.20;;;;;;5135749;27;20036;-90
2021/07/19 10:14:35;;;;;;;4.90;1.88;;;21.90;69.20;;;;;;5130656;27;20058;-90
2021/07/19 10:17:03;;;;;;;7.53;2.50;;;22.20;68.70;;;;;;5138117;27;20046;-88
2021/07/19 10:19:29;;;;;;;4.90;2.33;;;22.40;71.30;;;;;;5131623;27;20102;-89
2021/07/19 10:21:54;;;;;;;7.45;2.65;;;22.60;68.70;;;;;;5127084;27;20073;-87
2021/07/19 10:24:20;;;;;;;6.15;2.63;;;22.50;67.10;;;;;;5121644;28;20031;-87
2021/07/19 10:26:47;;;;;;;5.93;2.20;;;22.40;69.40;;;;;;5124425;27;20076;-88
2021/07/19 10:29:15;;;;;;;9.50;2.70;;;22.50;71.90;;;;;;5123085;27;20043;-87
2021/07/19 10:31:51;;;;;;;4.38;2.10;;;22.60;68.40;;;;;;5126393;27;20039;-95
2021/07/19 10:47:44;;;;;;;6.35;2.72;;;22.40;69.30;;;;;;5134873;28;20019;-90
2021/07/19 10:50:17;;;;;;;8.50;3.53;;;22.20;69.90;;;;;;5132421;27;20045;-91
2021/07/19 10:52:42;;;;;;;6.25;2.45;;;22.10;71.00;;;;;;5125857;27;20034;-92
2021/07/19 10:55:27;;;;;;;4.93;2.78;;;22.20;70.30;;;;;;5125508;27;20123;-91
2021/07/19 10:58:19;;;;;;;6.40;2.90;;;22.20;68.70;;;;;;5125662;27;20126;-93
2021/07/19 11:00:46;;;;;;;2.97;1.73;;;22.20;69.70;;;;;;5136686;27;20039;-88
2021/07/19 11:03:16;;;;;;;7.82;2.58;;;22.20;70.80;;;;;;5122410;27;20338;-88
2021/07/19 11:05:49;;;;;;;6.90;2.47;;;22.30;68.50;;;;;;5138607;27;20480;-87
2021/07/19 11:08:23;;;;;;;7.60;2.20;;;22.10;68.90;;;;;;5122026;27;20039;-88
2021/07/19 11:10:53;;;;;;;3.53;1.58;;;22.00;68.40;;;;;;5122394;27;20390;-89
2021/07/19 11:13:32;;;;;;;3.85;1.83;;;22.00;71.00;;;;;;5121370;27;20063;-87
2021/07/19 11:16:00;;;;;;;4.70;1.80;;;22.10;70.40;;;;;;5139742;27;20046;-87
2021/07/19 11:18:28;;;;;;;5.18;1.45;;;22.30;69.90;;;;;;5142455;27;20080;-88
2021/07/19 11:20:56;;;;;;;6.85;2.38;;;22.60;69.20;;;;;;5149103;27;20301;-88
2021/07/19 11:23:37;;;;;;;3.13;1.75;;;22.70;69.30;;;;;;5101427;28;20071;-88
2021/07/19 11:26:06;;;;;;;4.40;1.45;;;22.80;67.00;;;;;;5100986;28;20291;-88
2021/07/19 11:28:41;;;;;;;6.60;2.10;;;22.80;67.00;;;;;;5101092;28;20108;-88
2021/07/19 11:31:18;;;;;;;4.15;1.60;;;23.00;66.30;;;;;;5119177;28;20043;-91
2021/07/19 11:33:48;;;;;;;5.53;1.50;;;23.10;66.60;;;;;;5119201;28;20058;-87
2021/07/19 11:36:21;;;;;;;5.38;1.65;;;23.10;66.40;;;;;;5120297;27;20043;-89
2021/07/19 11:38:47;;;;;;;4.53;1.42;;;23.00;68.00;;;;;;5120959;27;20123;-87
2021/07/19 11:41:24;;;;;;;3.10;1.25;;;23.10;66.00;;;;;;5139473;27;20027;-87
2021/07/19 11:43:57;;;;;;;3.78;1.80;;;23.30;65.40;;;;;;5132755;27;20060;-89
2021/07/19 11:46:39;;;;;;;7.95;2.10;;;23.40;66.10;;;;;;5143278;27;20115;-90
2021/07/19 11:49:09;;;;;;;2.85;1.52;;;23.10;65.00;;;;;;5121791;27;20046;-90
2021/07/19 11:51:37;;;;;;;6.63;2.35;;;23.10;66.40;;;;;;5122435;27;20031;-91
2021/07/19 11:54:03;;;;;;;7.07;1.98;;;23.00;68.00;;;;;;5103053;28;20039;-88
2021/07/19 11:56:30;;;;;;;7.20;1.88;;;23.00;66.30;;;;;;5105454;27;20454;-89
2021/07/19 11:58:58;;;;;;;2.47;1.45;;;23.00;67.50;;;;;;5120754;27;20390;-90
2021/07/19 12:01:34;;;;;;;5.53;1.90;;;23.10;67.90;;;;;;5138330;27;20502;-87
2021/07/19 12:04:02;;;;;;;4.53;1.35;;;23.00;67.80;;;;;;5120408;27;20405;-88
2021/07/19 12:06:28;;;;;;;3.13;1.70;;;22.80;66.50;;;;;;5120741;27;20043;-89
2021/07/19 12:09:06;;;;;;;6.35;1.67;;;22.80;67.30;;;;;;5120285;27;20622;-87
2021/07/19 12:11:33;;;;;;;10.30;1.92;;;22.50;67.60;;;;;;5122178;27;20058;-88
2021/07/19 12:14:01;;;;;;;3.15;1.83;;;22.50;69.00;;;;;;5120608;27;20039;-86
2021/07/19 12:16:39;;;;;;;5.30;1.60;;;22.40;67.90;;;;;;5121648;27;20080;-89
2021/07/19 12:19:06;;;;;;;4.80;1.90;;;22.40;69.20;;;;;;5127871;27;20046;-88
2021/07/19 12:21:47;;;;;;;5.57;1.90;;;22.50;67.00;;;;;;5122684;27;20100;-89
2021/07/19 12:24:15;;;;;;;4.30;1.55;;;22.40;68.70;;;;;;5120766;27;20035;-88
2021/07/19 12:26:47;;;;;;;8.85;1.42;;;22.50;68.30;;;;;;5119838;27;20458;-87
2021/07/19 12:29:18;;;;;;;4.10;1.80;;;22.60;67.60;;;;;;5120544;27;20043;-89
2021/07/19 12:31:43;;;;;;;5.78;2.33;;;22.70;67.30;;;;;;5138834;27;20046;-87
2021/07/19 12:34:16;;;;;;;6.97;2.55;;;22.70;67.80;;;;;;5116308;28;20035;-87
2021/07/19 12:36:59;;;;;;;4.65;2.08;;;22.70;67.80;;;;;;5100428;28;20074;-89
2021/07/19 12:39:37;;;;;;;5.28;2.00;;;22.60;68.10;;;;;;5099157;28;20062;-86
2021/07/19 12:42:08;;;;;;;5.32;2.50;;;22.60;68.90;;;;;;5100558;28;20035;-89
2021/07/19 12:44:34;;;;;;;6.10;1.80;;;22.60;68.40;;;;;;5105381;27;20035;-87
2021/07/19 12:47:00;;;;;;;5.50;2.08;;;22.50;67.50;;;;;;5099956;28;20134;-88
2021/07/19 12:49:34;;;;;;;8.25;2.95;;;22.50;68.80;;;;;;5120020;27;20039;-88
2021/07/19 12:52:08;;;;;;;5.07;2.60;;;22.50;70.90;;;;;;5147595;27;20035;-89
2021/07/19 12:54:34;;;;;;;5.90;1.92;;;22.50;68.60;;;;;;5147365;27;20060;-88
2021/07/19 12:57:01;;;;;;;4.78;2.03;;;22.60;69.80;;;;;;5120755;27;20126;-89
2021/07/19 12:59:26;;;;;;;4.95;2.17;;;22.60;69.70;;;;;;5120462;27;20320;-87
2021/07/19 13:01:57;;;;;;;6.57;2.60;;;22.60;69.60;;;;;;5122614;27;20069;-88
2021/07/19 13:04:23;;;;;;;8.93;2.65;;;22.70;70.30;;;;;;5129218;28;20039;-86
2021/07/19 13:06:49;;;;;;;4.22;1.77;;;22.80;67.20;;;;;;5126515;28;20331;-88